LSGG/GVA METAR and TAF weather

Enter ICAO airport designator
Station Type Date Time Source
LSGG METAR 2020/08/14 17:20 UTC NOAA

LSGG 141720Z 04007KT 9999 SCT050 24/16 Q1015 NOSIG


Station Type Date Time Source
LSGG Decoded METAR 2020/08/14 17:20 UTC NOAA

Geneve-Cointrin, Switzerland (LSGG) 46-15N 006-08E 416M
Aug 14, 2020 - 01:20 PM EDT / 2020.08.14 1720 UTC
Wind: from the NE (040 degrees) at 8 MPH (7 KT):0
Visibility: greater than 7 mile(s):0
Sky conditions: partly cloudy
Temperature: 75 F (24 C)
Dew Point: 60 F (16 C)
Relative Humidity: 60%
Pressure (altimeter): 29.97 in. Hg (1015 hPa)
ob: LSGG 141720Z 04007KT 9999 SCT050 24/16 Q1015 NOSIG
cycle: 17

Station Type Date Time Source
LSGG TAF 2020/08/14 15:35 UTC NOAA

TAF LSGG 141425Z 1415/1521 05005KT 9999 FEW040 TX27/1415Z TN15/1505Z TX29/1515Z
BECMG 1420/1422 CAVOK

Example: see airport list